sensor_id;sensor_type;location;lat;lon;timestamp;P1;durP1;ratioP1;P2;durP2;ratioP2
32297;SDS011;18782;48.984;8.548;2022-12-20T00:01:52;39.33;;;23.38;;
32297;SDS011;18782;48.984;8.548;2022-12-20T00:04:20;38.65;;;22.52;;
32297;SDS011;18782;48.984;8.548;2022-12-20T00:06:48;35.70;;;22.33;;
32297;SDS011;18782;48.984;8.548;2022-12-20T00:09:15;33.97;;;20.30;;
32297;SDS011;18782;48.984;8.548;2022-12-20T00:11:43;36.13;;;21.20;;
32297;SDS011;18782;48.984;8.548;2022-12-20T00:14:11;31.50;;;19.25;;
32297;SDS011;18782;48.984;8.548;2022-12-20T00:16:39;31.42;;;18.70;;
32297;SDS011;18782;48.984;8.548;2022-12-20T00:19:09;30.08;;;17.85;;
32297;SDS011;18782;48.984;8.548;2022-12-20T00:21:38;26.42;;;16.33;;
32297;SDS011;18782;48.984;8.548;2022-12-20T00:24:06;29.63;;;17.15;;
32297;SDS011;18782;48.984;8.548;2022-12-20T00:26:34;26.42;;;17.23;;
32297;SDS011;18782;48.984;8.548;2022-12-20T00:29:03;31.73;;;18.83;;
32297;SDS011;18782;48.984;8.548;2022-12-20T00:31:31;30.27;;;18.85;;
32297;SDS011;18782;48.984;8.548;2022-12-20T00:33:59;32.05;;;19.92;;
32297;SDS011;18782;48.984;8.548;2022-12-20T00:36:30;30.45;;;18.33;;
32297;SDS011;18782;48.984;8.548;2022-12-20T00:38:59;30.42;;;18.90;;
32297;SDS011;18782;48.984;8.548;2022-12-20T00:41:28;33.85;;;18.88;;
32297;SDS011;18782;48.984;8.548;2022-12-20T00:43:57;33.97;;;20.45;;
32297;SDS011;18782;48.984;8.548;2022-12-20T00:46:26;31.67;;;20.55;;
32297;SDS011;18782;48.984;8.548;2022-12-20T00:48:54;32.50;;;20.83;;
32297;SDS011;18782;48.984;8.548;2022-12-20T00:51:24;34.72;;;19.80;;
32297;SDS011;18782;48.984;8.548;2022-12-20T00:53:55;29.25;;;18.63;;
32297;SDS011;18782;48.984;8.548;2022-12-20T00:56:23;31.08;;;18.52;;
32297;SDS011;18782;48.984;8.548;2022-12-20T00:58:53;34.83;;;20.13;;
32297;SDS011;18782;48.984;8.548;2022-12-20T01:01:25;30.13;;;19.45;;
32297;SDS011;18782;48.984;8.548;2022-12-20T01:03:56;29.45;;;18.13;;
32297;SDS011;18782;48.984;8.548;2022-12-20T01:06:24;33.47;;;18.42;;
32297;SDS011;18782;48.984;8.548;2022-12-20T01:08:57;31.85;;;18.17;;
32297;SDS011;18782;48.984;8.548;2022-12-20T01:11:27;28.52;;;16.98;;
32297;SDS011;18782;48.984;8.548;2022-12-20T01:13:58;28.35;;;17.90;;
32297;SDS011;18782;48.984;8.548;2022-12-20T01:16:31;29.05;;;17.35;;
32297;SDS011;18782;48.984;8.548;2022-12-20T01:19:02;30.50;;;17.15;;
32297;SDS011;18782;48.984;8.548;2022-12-20T01:21:30;32.38;;;18.02;;
32297;SDS011;18782;48.984;8.548;2022-12-20T01:24:00;31.25;;;19.27;;
32297;SDS011;18782;48.984;8.548;2022-12-20T01:26:28;29.13;;;17.70;;
32297;SDS011;18782;48.984;8.548;2022-12-20T01:28:57;33.67;;;18.83;;
32297;SDS011;18782;48.984;8.548;2022-12-20T01:31:26;32.38;;;19.42;;
32297;SDS011;18782;48.984;8.548;2022-12-20T01:33:55;33.92;;;19.00;;
32297;SDS011;18782;48.984;8.548;2022-12-20T01:36:24;32.83;;;18.92;;
32297;SDS011;18782;48.984;8.548;2022-12-20T01:38:55;27.60;;;17.98;;
32297;SDS011;18782;48.984;8.548;2022-12-20T01:41:26;30.98;;;18.02;;
32297;SDS011;18782;48.984;8.548;2022-12-20T01:43:55;32.25;;;18.40;;
32297;SDS011;18782;48.984;8.548;2022-12-20T01:46:25;30.77;;;18.08;;
32297;SDS011;18782;48.984;8.548;2022-12-20T01:48:55;32.72;;;19.13;;
32297;SDS011;18782;48.984;8.548;2022-12-20T01:51:27;30.35;;;18.20;;
32297;SDS011;18782;48.984;8.548;2022-12-20T01:53:57;34.92;;;18.98;;
32297;SDS011;18782;48.984;8.548;2022-12-20T01:56:32;32.17;;;18.48;;
32297;SDS011;18782;48.984;8.548;2022-12-20T01:59:01;31.50;;;17.77;;
32297;SDS011;18782;48.984;8.548;2022-12-20T02:01:29;30.20;;;17.52;;
32297;SDS011;18782;48.984;8.548;2022-12-20T02:03:57;34.80;;;17.52;;
32297;SDS011;18782;48.984;8.548;2022-12-20T02:06:25;26.98;;;17.17;;
32297;SDS011;18782;48.984;8.548;2022-12-20T02:08:54;31.35;;;17.42;;
32297;SDS011;18782;48.984;8.548;2022-12-20T02:14:07;26.13;;;15.77;;
32297;SDS011;18782;48.984;8.548;2022-12-20T02:16:43;27.85;;;16.95;;
32297;SDS011;18782;48.984;8.548;2022-12-20T02:19:23;28.45;;;18.15;;
32297;SDS011;18782;48.984;8.548;2022-12-20T02:22:23;28.38;;;15.88;;
32297;SDS011;18782;48.984;8.548;2022-12-20T02:25:05;25.88;;;15.43;;
32297;SDS011;18782;48.984;8.548;2022-12-20T02:27:47;26.50;;;15.65;;
32297;SDS011;18782;48.984;8.548;2022-12-20T02:30:23;27.70;;;15.73;;
32297;SDS011;18782;48.984;8.548;2022-12-20T02:32:56;29.80;;;17.02;;
32297;SDS011;18782;48.984;8.548;2022-12-20T02:35:29;20.97;;;13.40;;
32297;SDS011;18782;48.984;8.548;2022-12-20T02:38:00;22.67;;;14.75;;
32297;SDS011;18782;48.984;8.548;2022-12-20T02:40:31;21.90;;;14.23;;
32297;SDS011;18782;48.984;8.548;2022-12-20T02:43:03;22.48;;;13.77;;
32297;SDS011;18782;48.984;8.548;2022-12-20T02:45:59;22.00;;;13.10;;
32297;SDS011;18782;48.984;8.548;2022-12-20T02:48:28;22.38;;;14.05;;
32297;SDS011;18782;48.984;8.548;2022-12-20T02:50:59;22.17;;;13.70;;
32297;SDS011;18782;48.984;8.548;2022-12-20T02:53:30;24.88;;;13.63;;
32297;SDS011;18782;48.984;8.548;2022-12-20T02:55:59;21.20;;;12.70;;
32297;SDS011;18782;48.984;8.548;2022-12-20T02:58:33;22.23;;;13.40;;
32297;SDS011;18782;48.984;8.548;2022-12-20T03:01:07;20.30;;;12.30;;
32297;SDS011;18782;48.984;8.548;2022-12-20T03:03:38;23.77;;;13.65;;
32297;SDS011;18782;48.984;8.548;2022-12-20T03:06:07;23.88;;;13.77;;
32297;SDS011;18782;48.984;8.548;2022-12-20T03:08:35;21.40;;;12.90;;
32297;SDS011;18782;48.984;8.548;2022-12-20T03:11:03;21.65;;;13.63;;
32297;SDS011;18782;48.984;8.548;2022-12-20T03:13:31;22.20;;;13.57;;
32297;SDS011;18782;48.984;8.548;2022-12-20T03:16:05;24.35;;;14.43;;
32297;SDS011;18782;48.984;8.548;2022-12-20T03:18:36;20.80;;;14.13;;
32297;SDS011;18782;48.984;8.548;2022-12-20T03:21:05;24.33;;;14.70;;
32297;SDS011;18782;48.984;8.548;2022-12-20T03:23:33;23.13;;;14.02;;
32297;SDS011;18782;48.984;8.548;2022-12-20T03:26:00;22.05;;;14.65;;
32297;SDS011;18782;48.984;8.548;2022-12-20T03:28:37;23.52;;;13.93;;
32297;SDS011;18782;48.984;8.548;2022-12-20T03:31:08;20.40;;;12.85;;
32297;SDS011;18782;48.984;8.548;2022-12-20T03:33:43;22.58;;;12.73;;
32297;SDS011;18782;48.984;8.548;2022-12-20T03:36:11;20.00;;;12.38;;
32297;SDS011;18782;48.984;8.548;2022-12-20T03:38:39;22.02;;;12.43;;
32297;SDS011;18782;48.984;8.548;2022-12-20T03:41:07;17.77;;;11.30;;
32297;SDS011;18782;48.984;8.548;2022-12-20T03:43:35;19.23;;;11.20;;
32297;SDS011;18782;48.984;8.548;2022-12-20T03:46:04;18.27;;;11.43;;
32297;SDS011;18782;48.984;8.548;2022-12-20T03:48:37;13.55;;;9.18;;
32297;SDS011;18782;48.984;8.548;2022-12-20T03:51:08;17.80;;;10.73;;
32297;SDS011;18782;48.984;8.548;2022-12-20T03:53:36;17.10;;;10.88;;
32297;SDS011;18782;48.984;8.548;2022-12-20T03:56:04;19.25;;;11.32;;
32297;SDS011;18782;48.984;8.548;2022-12-20T03:58:34;15.93;;;11.68;;
32297;SDS011;18782;48.984;8.548;2022-12-20T04:01:02;16.33;;;11.02;;
32297;SDS011;18782;48.984;8.548;2022-12-20T04:03:45;16.35;;;10.32;;
32297;SDS011;18782;48.984;8.548;2022-12-20T04:06:13;16.10;;;9.75;;
32297;SDS011;18782;48.984;8.548;2022-12-20T04:08:42;14.38;;;9.75;;
32297;SDS011;18782;48.984;8.548;2022-12-20T04:11:15;16.70;;;10.27;;
32297;SDS011;18782;48.984;8.548;2022-12-20T04:13:49;14.18;;;9.27;;
32297;SDS011;18782;48.984;8.548;2022-12-20T04:16:21;15.35;;;9.85;;
32297;SDS011;18782;48.984;8.548;2022-12-20T04:18:54;15.85;;;9.63;;
32297;SDS011;18782;48.984;8.548;2022-12-20T04:21:22;17.35;;;9.68;;
32297;SDS011;18782;48.984;8.548;2022-12-20T04:23:54;16.65;;;10.52;;
32297;SDS011;18782;48.984;8.548;2022-12-20T04:26:26;14.07;;;9.55;;
32297;SDS011;18782;48.984;8.548;2022-12-20T04:28:56;13.80;;;9.52;;
32297;SDS011;18782;48.984;8.548;2022-12-20T04:31:25;14.38;;;8.75;;
32297;SDS011;18782;48.984;8.548;2022-12-20T04:33:55;14.88;;;9.52;;
32297;SDS011;18782;48.984;8.548;2022-12-20T04:36:23;16.08;;;9.63;;
32297;SDS011;18782;48.984;8.548;2022-12-20T04:38:54;19.08;;;10.70;;
32297;SDS011;18782;48.984;8.548;2022-12-20T04:41:22;18.00;;;10.15;;
32297;SDS011;18782;48.984;8.548;2022-12-20T04:46:32;12.90;;;8.23;;
32297;SDS011;18782;48.984;8.548;2022-12-20T04:49:03;13.02;;;7.97;;
32297;SDS011;18782;48.984;8.548;2022-12-20T04:51:33;13.98;;;8.18;;
32297;SDS011;18782;48.984;8.548;2022-12-20T04:54:01;13.25;;;7.95;;
32297;SDS011;18782;48.984;8.548;2022-12-20T04:56:40;15.63;;;9.00;;
32297;SDS011;18782;48.984;8.548;2022-12-20T04:59:10;12.30;;;8.00;;
32297;SDS011;18782;48.984;8.548;2022-12-20T05:01:41;10.70;;;7.30;;
32297;SDS011;18782;48.984;8.548;2022-12-20T05:04:16;12.18;;;7.55;;
32297;SDS011;18782;48.984;8.548;2022-12-20T05:06:44;12.63;;;7.97;;
32297;SDS011;18782;48.984;8.548;2022-12-20T05:09:13;12.45;;;8.20;;
32297;SDS011;18782;48.984;8.548;2022-12-20T05:11:40;13.90;;;8.15;;
32297;SDS011;18782;48.984;8.548;2022-12-20T05:14:08;12.63;;;7.90;;
32297;SDS011;18782;48.984;8.548;2022-12-20T05:16:36;14.50;;;8.82;;
32297;SDS011;18782;48.984;8.548;2022-12-20T05:19:05;11.30;;;7.65;;
32297;SDS011;18782;48.984;8.548;2022-12-20T05:21:38;15.18;;;9.00;;
32297;SDS011;18782;48.984;8.548;2022-12-20T05:24:24;15.27;;;8.43;;
32297;SDS011;18782;48.984;8.548;2022-12-20T05:27:18;13.52;;;7.82;;
32297;SDS011;18782;48.984;8.548;2022-12-20T05:29:46;13.10;;;7.45;;
32297;SDS011;18782;48.984;8.548;2022-12-20T05:32:14;14.48;;;7.68;;
32297;SDS011;18782;48.984;8.548;2022-12-20T05:34:42;12.30;;;7.45;;
32297;SDS011;18782;48.984;8.548;2022-12-20T05:37:11;11.45;;;7.68;;
32297;SDS011;18782;48.984;8.548;2022-12-20T05:39:41;11.85;;;7.93;;
32297;SDS011;18782;48.984;8.548;2022-12-20T05:42:15;12.88;;;7.70;;
32297;SDS011;18782;48.984;8.548;2022-12-20T05:44:43;11.57;;;7.50;;
32297;SDS011;18782;48.984;8.548;2022-12-20T05:47:11;10.70;;;7.50;;
32297;SDS011;18782;48.984;8.548;2022-12-20T05:49:39;12.35;;;7.57;;
32297;SDS011;18782;48.984;8.548;2022-12-20T05:52:09;13.90;;;8.40;;
32297;SDS011;18782;48.984;8.548;2022-12-20T05:54:40;13.52;;;8.10;;
32297;SDS011;18782;48.984;8.548;2022-12-20T05:57:14;11.70;;;7.47;;
32297;SDS011;18782;48.984;8.548;2022-12-20T05:59:41;12.73;;;7.53;;
32297;SDS011;18782;48.984;8.548;2022-12-20T06:02:18;14.20;;;7.97;;
32297;SDS011;18782;48.984;8.548;2022-12-20T06:04:50;13.23;;;7.65;;
32297;SDS011;18782;48.984;8.548;2022-12-20T06:07:20;16.05;;;8.73;;
32297;SDS011;18782;48.984;8.548;2022-12-20T06:09:54;12.25;;;8.35;;
32297;SDS011;18782;48.984;8.548;2022-12-20T06:12:26;47.63;;;20.85;;
32297;SDS011;18782;48.984;8.548;2022-12-20T06:14:54;33.45;;;16.50;;
32297;SDS011;18782;48.984;8.548;2022-12-20T06:17:22;28.70;;;13.93;;
32297;SDS011;18782;48.984;8.548;2022-12-20T06:19:50;25.75;;;13.10;;
32297;SDS011;18782;48.984;8.548;2022-12-20T06:22:18;18.25;;;10.45;;
32297;SDS011;18782;48.984;8.548;2022-12-20T06:24:50;16.70;;;9.88;;
32297;SDS011;18782;48.984;8.548;2022-12-20T06:27:24;13.77;;;8.77;;
32297;SDS011;18782;48.984;8.548;2022-12-20T06:30:09;14.65;;;9.18;;
32297;SDS011;18782;48.984;8.548;2022-12-20T06:32:51;13.77;;;7.60;;
32297;SDS011;18782;48.984;8.548;2022-12-20T06:35:19;13.95;;;8.27;;
32297;SDS011;18782;48.984;8.548;2022-12-20T06:37:47;14.95;;;8.73;;
32297;SDS011;18782;48.984;8.548;2022-12-20T06:40:15;11.52;;;7.40;;
32297;SDS011;18782;48.984;8.548;2022-12-20T06:42:44;11.55;;;7.88;;
32297;SDS011;18782;48.984;8.548;2022-12-20T06:45:13;11.35;;;7.97;;
32297;SDS011;18782;48.984;8.548;2022-12-20T06:47:41;12.15;;;7.65;;
32297;SDS011;18782;48.984;8.548;2022-12-20T06:50:10;12.27;;;7.47;;
32297;SDS011;18782;48.984;8.548;2022-12-20T06:52:37;11.77;;;7.07;;
32297;SDS011;18782;48.984;8.548;2022-12-20T06:55:05;13.07;;;7.97;;
32297;SDS011;18782;48.984;8.548;2022-12-20T06:57:37;13.10;;;7.95;;
32297;SDS011;18782;48.984;8.548;2022-12-20T07:00:07;13.23;;;7.85;;
32297;SDS011;18782;48.984;8.548;2022-12-20T07:02:37;7.60;;;5.47;;
32297;SDS011;18782;48.984;8.548;2022-12-20T07:05:06;16.48;;;9.45;;
32297;SDS011;18782;48.984;8.548;2022-12-20T07:07:34;15.05;;;9.30;;
32297;SDS011;18782;48.984;8.548;2022-12-20T07:10:10;14.00;;;8.82;;
32297;SDS011;18782;48.984;8.548;2022-12-20T07:12:37;16.92;;;9.57;;
32297;SDS011;18782;48.984;8.548;2022-12-20T07:15:14;13.50;;;9.02;;
32297;SDS011;18782;48.984;8.548;2022-12-20T07:17:42;16.52;;;9.25;;
32297;SDS011;18782;48.984;8.548;2022-12-20T07:20:10;16.85;;;11.10;;
32297;SDS011;18782;48.984;8.548;2022-12-20T07:22:40;17.50;;;10.70;;
32297;SDS011;18782;48.984;8.548;2022-12-20T07:25:10;18.98;;;11.32;;
32297;SDS011;18782;48.984;8.548;2022-12-20T07:27:37;17.92;;;11.20;;
32297;SDS011;18782;48.984;8.548;2022-12-20T07:30:05;15.82;;;9.85;;
32297;SDS011;18782;48.984;8.548;2022-12-20T07:32:35;14.10;;;8.85;;
32297;SDS011;18782;48.984;8.548;2022-12-20T07:35:03;14.02;;;8.90;;
32297;SDS011;18782;48.984;8.548;2022-12-20T07:37:30;17.88;;;9.70;;
32297;SDS011;18782;48.984;8.548;2022-12-20T07:39:58;14.85;;;8.50;;
32297;SDS011;18782;48.984;8.548;2022-12-20T07:42:26;14.07;;;8.65;;
32297;SDS011;18782;48.984;8.548;2022-12-20T07:45:04;14.10;;;8.82;;
32297;SDS011;18782;48.984;8.548;2022-12-20T07:47:32;14.88;;;8.70;;
32297;SDS011;18782;48.984;8.548;2022-12-20T07:50:02;15.13;;;9.45;;
32297;SDS011;18782;48.984;8.548;2022-12-20T07:52:31;17.80;;;9.88;;
32297;SDS011;18782;48.984;8.548;2022-12-20T07:55:01;15.73;;;8.80;;
32297;SDS011;18782;48.984;8.548;2022-12-20T07:57:30;13.45;;;8.95;;
32297;SDS011;18782;48.984;8.548;2022-12-20T08:02:39;13.30;;;9.40;;
32297;SDS011;18782;48.984;8.548;2022-12-20T08:05:14;18.35;;;10.70;;
32297;SDS011;18782;48.984;8.548;2022-12-20T08:07:43;24.80;;;15.43;;
32297;SDS011;18782;48.984;8.548;2022-12-20T08:10:15;24.48;;;16.33;;
32297;SDS011;18782;48.984;8.548;2022-12-20T08:12:44;18.70;;;12.05;;
32297;SDS011;18782;48.984;8.548;2022-12-20T08:15:18;15.07;;;9.65;;
32297;SDS011;18782;48.984;8.548;2022-12-20T08:17:49;14.25;;;9.20;;
32297;SDS011;18782;48.984;8.548;2022-12-20T08:20:19;15.48;;;9.73;;
32297;SDS011;18782;48.984;8.548;2022-12-20T08:22:47;16.20;;;10.30;;
32297;SDS011;18782;48.984;8.548;2022-12-20T08:25:14;17.85;;;10.88;;
32297;SDS011;18782;48.984;8.548;2022-12-20T08:27:42;19.20;;;12.90;;
32297;SDS011;18782;48.984;8.548;2022-12-20T08:30:12;18.02;;;10.23;;
32297;SDS011;18782;48.984;8.548;2022-12-20T08:32:40;15.77;;;9.27;;
32297;SDS011;18782;48.984;8.548;2022-12-20T08:35:09;16.83;;;9.45;;
32297;SDS011;18782;48.984;8.548;2022-12-20T08:37:39;15.27;;;9.38;;
32297;SDS011;18782;48.984;8.548;2022-12-20T08:40:07;15.07;;;9.77;;
32297;SDS011;18782;48.984;8.548;2022-12-20T08:42:35;14.88;;;9.07;;
32297;SDS011;18782;48.984;8.548;2022-12-20T08:45:04;17.30;;;8.95;;
32297;SDS011;18782;48.984;8.548;2022-12-20T08:47:32;17.90;;;8.93;;
32297;SDS011;18782;48.984;8.548;2022-12-20T08:49:59;15.68;;;9.40;;
32297;SDS011;18782;48.984;8.548;2022-12-20T08:52:27;12.23;;;8.82;;
32297;SDS011;18782;48.984;8.548;2022-12-20T08:54:59;12.43;;;8.07;;
32297;SDS011;18782;48.984;8.548;2022-12-20T08:57:27;12.60;;;8.50;;
32297;SDS011;18782;48.984;8.548;2022-12-20T08:59:55;14.82;;;8.77;;
32297;SDS011;18782;48.984;8.548;2022-12-20T09:02:22;13.10;;;8.20;;
32297;SDS011;18782;48.984;8.548;2022-12-20T09:04:50;12.18;;;7.50;;
32297;SDS011;18782;48.984;8.548;2022-12-20T09:07:18;12.02;;;7.57;;
32297;SDS011;18782;48.984;8.548;2022-12-20T09:09:45;12.88;;;7.85;;
32297;SDS011;18782;48.984;8.548;2022-12-20T09:12:15;12.93;;;8.75;;
32297;SDS011;18782;48.984;8.548;2022-12-20T09:14:42;12.40;;;7.57;;
32297;SDS011;18782;48.984;8.548;2022-12-20T09:17:12;12.50;;;7.63;;
32297;SDS011;18782;48.984;8.548;2022-12-20T09:19:41;11.00;;;6.95;;
32297;SDS011;18782;48.984;8.548;2022-12-20T09:22:11;12.77;;;7.60;;
32297;SDS011;18782;48.984;8.548;2022-12-20T09:24:40;13.25;;;7.30;;
32297;SDS011;18782;48.984;8.548;2022-12-20T09:27:08;11.77;;;7.63;;
32297;SDS011;18782;48.984;8.548;2022-12-20T09:29:37;9.90;;;6.97;;
32297;SDS011;18782;48.984;8.548;2022-12-20T09:32:04;43.72;;;11.30;;
32297;SDS011;18782;48.984;8.548;2022-12-20T09:34:32;16.23;;;8.90;;
32297;SDS011;18782;48.984;8.548;2022-12-20T09:37:00;13.25;;;7.75;;
32297;SDS011;18782;48.984;8.548;2022-12-20T09:39:27;15.27;;;8.40;;
32297;SDS011;18782;48.984;8.548;2022-12-20T09:41:55;14.70;;;8.57;;
32297;SDS011;18782;48.984;8.548;2022-12-20T09:44:24;15.57;;;8.35;;
32297;SDS011;18782;48.984;8.548;2022-12-20T09:46:57;15.15;;;8.27;;
32297;SDS011;18782;48.984;8.548;2022-12-20T09:49:36;12.57;;;7.68;;
32297;SDS011;18782;48.984;8.548;2022-12-20T09:52:12;13.07;;;7.90;;
32297;SDS011;18782;48.984;8.548;2022-12-20T09:54:50;13.40;;;8.10;;
32297;SDS011;18782;48.984;8.548;2022-12-20T09:57:28;12.82;;;7.95;;
32297;SDS011;18782;48.984;8.548;2022-12-20T10:00:08;12.85;;;7.80;;
32297;SDS011;18782;48.984;8.548;2022-12-20T10:02:40;14.13;;;8.35;;
32297;SDS011;18782;48.984;8.548;2022-12-20T10:05:31;12.60;;;7.28;;
32297;SDS011;18782;48.984;8.548;2022-12-20T10:08:08;13.85;;;7.75;;
32297;SDS011;18782;48.984;8.548;2022-12-20T10:10:49;11.25;;;7.07;;
32297;SDS011;18782;48.984;8.548;2022-12-20T10:13:28;14.38;;;7.03;;
32297;SDS011;18782;48.984;8.548;2022-12-20T10:16:07;14.07;;;8.00;;
32297;SDS011;18782;48.984;8.548;2022-12-20T10:18:49;15.65;;;10.10;;
32297;SDS011;18782;48.984;8.548;2022-12-20T10:21:29;14.23;;;8.40;;
32297;SDS011;18782;48.984;8.548;2022-12-20T10:24:09;13.82;;;8.25;;
32297;SDS011;18782;48.984;8.548;2022-12-20T10:26:42;13.02;;;8.07;;
32297;SDS011;18782;48.984;8.548;2022-12-20T10:29:10;15.05;;;8.90;;
32297;SDS011;18782;48.984;8.548;2022-12-20T10:31:38;15.82;;;9.10;;
32297;SDS011;18782;48.984;8.548;2022-12-20T10:34:07;12.82;;;8.40;;
32297;SDS011;18782;48.984;8.548;2022-12-20T10:36:35;14.55;;;8.95;;
32297;SDS011;18782;48.984;8.548;2022-12-20T10:39:04;14.77;;;8.38;;
32297;SDS011;18782;48.984;8.548;2022-12-20T10:41:45;16.13;;;10.07;;
32297;SDS011;18782;48.984;8.548;2022-12-20T10:44:16;14.93;;;9.35;;
32297;SDS011;18782;48.984;8.548;2022-12-20T10:46:46;14.55;;;10.15;;
32297;SDS011;18782;48.984;8.548;2022-12-20T10:49:27;14.30;;;8.77;;
32297;SDS011;18782;48.984;8.548;2022-12-20T10:51:57;14.75;;;9.10;;
32297;SDS011;18782;48.984;8.548;2022-12-20T10:54:29;15.05;;;8.93;;
32297;SDS011;18782;48.984;8.548;2022-12-20T10:56:58;19.30;;;10.20;;
32297;SDS011;18782;48.984;8.548;2022-12-20T10:59:29;14.27;;;9.05;;
32297;SDS011;18782;48.984;8.548;2022-12-20T11:02:01;18.53;;;10.67;;
32297;SDS011;18782;48.984;8.548;2022-12-20T11:04:32;18.25;;;11.18;;
32297;SDS011;18782;48.984;8.548;2022-12-20T11:07:02;19.27;;;10.82;;
32297;SDS011;18782;48.984;8.548;2022-12-20T11:09:51;13.90;;;9.07;;
32297;SDS011;18782;48.984;8.548;2022-12-20T11:12:20;15.67;;;8.93;;
32297;SDS011;18782;48.984;8.548;2022-12-20T11:14:48;13.90;;;8.23;;
32297;SDS011;18782;48.984;8.548;2022-12-20T11:17:21;14.90;;;8.57;;
32297;SDS011;18782;48.984;8.548;2022-12-20T11:20:00;14.10;;;8.77;;
32297;SDS011;18782;48.984;8.548;2022-12-20T11:22:38;12.82;;;7.70;;
32297;SDS011;18782;48.984;8.548;2022-12-20T11:25:25;14.52;;;8.35;;
32297;SDS011;18782;48.984;8.548;2022-12-20T11:28:09;13.55;;;8.20;;
32297;SDS011;18782;48.984;8.548;2022-12-20T11:30:58;26.00;;;14.80;;
32297;SDS011;18782;48.984;8.548;2022-12-20T11:33:39;23.95;;;14.45;;
32297;SDS011;18782;48.984;8.548;2022-12-20T11:36:20;19.85;;;11.00;;
32297;SDS011;18782;48.984;8.548;2022-12-20T11:38:57;14.82;;;9.20;;
32297;SDS011;18782;48.984;8.548;2022-12-20T11:41:34;15.23;;;8.95;;
32297;SDS011;18782;48.984;8.548;2022-12-20T11:44:08;15.23;;;9.10;;
32297;SDS011;18782;48.984;8.548;2022-12-20T11:46:56;13.73;;;8.88;;
32297;SDS011;18782;48.984;8.548;2022-12-20T11:49:38;15.90;;;9.17;;
32297;SDS011;18782;48.984;8.548;2022-12-20T11:52:20;16.02;;;9.65;;
32297;SDS011;18782;48.984;8.548;2022-12-20T11:54:57;17.30;;;9.48;;
32297;SDS011;18782;48.984;8.548;2022-12-20T11:57:31;13.43;;;8.50;;
32297;SDS011;18782;48.984;8.548;2022-12-20T12:00:23;12.03;;;8.50;;
32297;SDS011;18782;48.984;8.548;2022-12-20T12:02:53;18.55;;;9.32;;
32297;SDS011;18782;48.984;8.548;2022-12-20T12:05:27;32.03;;;22.08;;
32297;SDS011;18782;48.984;8.548;2022-12-20T12:08:04;27.33;;;21.67;;
32297;SDS011;18782;48.984;8.548;2022-12-20T12:10:44;15.43;;;10.25;;
32297;SDS011;18782;48.984;8.548;2022-12-20T12:13:22;12.50;;;8.43;;
32297;SDS011;18782;48.984;8.548;2022-12-20T12:15:56;13.40;;;8.15;;
32297;SDS011;18782;48.984;8.548;2022-12-20T12:18:32;12.75;;;7.95;;
32297;SDS011;18782;48.984;8.548;2022-12-20T12:21:04;14.20;;;8.07;;
32297;SDS011;18782;48.984;8.548;2022-12-20T12:23:40;12.10;;;7.78;;
32297;SDS011;18782;48.984;8.548;2022-12-20T12:26:19;11.52;;;7.60;;
32297;SDS011;18782;48.984;8.548;2022-12-20T12:28:51;13.55;;;8.60;;
32297;SDS011;18782;48.984;8.548;2022-12-20T12:31:24;14.13;;;9.18;;
32297;SDS011;18782;48.984;8.548;2022-12-20T12:34:07;14.02;;;9.07;;
32297;SDS011;18782;48.984;8.548;2022-12-20T12:43:09;17.52;;;10.07;;
32297;SDS011;18782;48.984;8.548;2022-12-20T12:45:51;17.35;;;10.15;;
32297;SDS011;18782;48.984;8.548;2022-12-20T12:48:23;15.95;;;10.38;;
32297;SDS011;18782;48.984;8.548;2022-12-20T12:50:59;15.93;;;11.38;;
32297;SDS011;18782;48.984;8.548;2022-12-20T12:53:30;14.07;;;10.07;;
32297;SDS011;18782;48.984;8.548;2022-12-20T12:59:21;16.48;;;10.27;;
32297;SDS011;18782;48.984;8.548;2022-12-20T13:01:51;23.08;;;13.43;;
32297;SDS011;18782;48.984;8.548;2022-12-20T13:04:22;47.63;;;20.00;;
32297;SDS011;18782;48.984;8.548;2022-12-20T13:06:55;188.73;;;54.78;;
32297;SDS011;18782;48.984;8.548;2022-12-20T13:09:41;92.78;;;31.27;;
32297;SDS011;18782;48.984;8.548;2022-12-20T13:18:21;52.47;;;23.33;;
32297;SDS011;18782;48.984;8.548;2022-12-20T13:26:56;14.02;;;9.35;;
32297;SDS011;18782;48.984;8.548;2022-12-20T13:29:26;14.70;;;9.07;;
32297;SDS011;18782;48.984;8.548;2022-12-20T13:32:01;12.43;;;8.35;;
32297;SDS011;18782;48.984;8.548;2022-12-20T13:34:37;14.25;;;8.90;;
32297;SDS011;18782;48.984;8.548;2022-12-20T13:37:24;19.63;;;11.15;;
32297;SDS011;18782;48.984;8.548;2022-12-20T13:39:53;20.08;;;12.05;;
32297;SDS011;18782;48.984;8.548;2022-12-20T13:42:25;17.55;;;9.98;;
32297;SDS011;18782;48.984;8.548;2022-12-20T13:45:01;16.08;;;9.70;;
32297;SDS011;18782;48.984;8.548;2022-12-20T13:47:39;22.40;;;13.40;;
32297;SDS011;18782;48.984;8.548;2022-12-20T13:50:23;16.02;;;10.93;;
32297;SDS011;18782;48.984;8.548;2022-12-20T13:52:56;14.63;;;8.85;;
32297;SDS011;18782;48.984;8.548;2022-12-20T13:55:25;16.48;;;10.65;;
32297;SDS011;18782;48.984;8.548;2022-12-20T13:58:02;17.02;;;10.50;;
32297;SDS011;18782;48.984;8.548;2022-12-20T14:03:12;19.77;;;10.98;;
32297;SDS011;18782;48.984;8.548;2022-12-20T14:05:47;17.02;;;11.00;;
32297;SDS011;18782;48.984;8.548;2022-12-20T14:08:16;19.33;;;12.43;;
32297;SDS011;18782;48.984;8.548;2022-12-20T14:10:50;23.25;;;13.57;;
32297;SDS011;18782;48.984;8.548;2022-12-20T14:13:21;22.67;;;13.57;;
32297;SDS011;18782;48.984;8.548;2022-12-20T14:15:52;19.67;;;12.45;;
32297;SDS011;18782;48.984;8.548;2022-12-20T14:18:24;17.90;;;10.52;;
32297;SDS011;18782;48.984;8.548;2022-12-20T14:20:54;15.93;;;11.07;;
32297;SDS011;18782;48.984;8.548;2022-12-20T14:23:28;17.10;;;11.63;;
32297;SDS011;18782;48.984;8.548;2022-12-20T14:26:04;19.08;;;12.15;;
32297;SDS011;18782;48.984;8.548;2022-12-20T14:28:38;16.83;;;11.32;;
32297;SDS011;18782;48.984;8.548;2022-12-20T14:31:21;17.35;;;11.50;;
32297;SDS011;18782;48.984;8.548;2022-12-20T14:33:52;16.10;;;11.02;;
32297;SDS011;18782;48.984;8.548;2022-12-20T14:36:28;17.55;;;11.88;;
32297;SDS011;18782;48.984;8.548;2022-12-20T14:38:56;21.92;;;13.75;;
32297;SDS011;18782;48.984;8.548;2022-12-20T14:41:31;22.67;;;13.85;;
32297;SDS011;18782;48.984;8.548;2022-12-20T14:44:02;24.00;;;14.27;;
32297;SDS011;18782;48.984;8.548;2022-12-20T14:46:40;21.90;;;13.18;;
32297;SDS011;18782;48.984;8.548;2022-12-20T14:49:24;15.40;;;10.38;;
32297;SDS011;18782;48.984;8.548;2022-12-20T14:52:03;16.50;;;9.55;;
32297;SDS011;18782;48.984;8.548;2022-12-20T14:54:33;13.50;;;8.95;;
32297;SDS011;18782;48.984;8.548;2022-12-20T14:57:23;17.50;;;10.77;;
32297;SDS011;18782;48.984;8.548;2022-12-20T14:59:57;16.98;;;12.90;;
32297;SDS011;18782;48.984;8.548;2022-12-20T15:02:32;23.52;;;13.80;;
32297;SDS011;18782;48.984;8.548;2022-12-20T15:05:07;46.58;;;23.90;;
32297;SDS011;18782;48.984;8.548;2022-12-20T15:07:50;39.92;;;22.90;;
32297;SDS011;18782;48.984;8.548;2022-12-20T15:10:18;26.80;;;15.63;;
32297;SDS011;18782;48.984;8.548;2022-12-20T15:12:45;33.58;;;16.17;;
32297;SDS011;18782;48.984;8.548;2022-12-20T15:15:13;27.65;;;16.88;;
32297;SDS011;18782;48.984;8.548;2022-12-20T15:17:54;24.02;;;14.05;;
32297;SDS011;18782;48.984;8.548;2022-12-20T15:20:23;16.00;;;9.93;;
32297;SDS011;18782;48.984;8.548;2022-12-20T15:22:51;16.35;;;9.73;;
32297;SDS011;18782;48.984;8.548;2022-12-20T15:25:19;32.33;;;19.10;;
32297;SDS011;18782;48.984;8.548;2022-12-20T15:27:47;17.30;;;10.27;;
32297;SDS011;18782;48.984;8.548;2022-12-20T15:30:14;14.43;;;9.63;;